Terminal Aerodrome Forecast
Issued by NWS

Home | Current Version | Previous Version | Text Only | Print | Product List | Glossary On
Versions: 1 2 3 4 5 6 7 8 9 10 11 12 13 14 15 16 17 18
000
FTUS45 KABQ 181246 AAA
TAFGUP
TAF AMD
KGUP 181246Z 1813/1912 VRB05KT P6SM BKN050
      TEMPO 1813/1815 1SM BR BKN004
     FM181900 24013KT P6SM SCT060
     FM190100 22006KT P6SM SKC=

USA.gov is the U.S. government's official web portal to all federal, state and local government web resources and services.